Terminal Aerodrome Forecast
Issued by NWS

Home | Current Version | Previous Version | Text Only | Print | Product List | Glossary On
Versions: 1 2 3 4 5 6 7 8 9 10 11 12 13 14 15 16 17 18 19 20 21 22 23 24
000
FTUS45 KCYS 281700
TAFRWL
TAF
KRWL 281732Z 2818/2918 12007KT P6SM SCT150
     FM282100 12010KT P6SM VCTS BKN120CB
     FM290400 08008KT P6SM BKN100
     FM291300 05006KT P6SM VCSH SCT015 OVC035=

USA.gov is the U.S. government's official web portal to all federal, state and local government web resources and services.